Terminal Aerodrome Forecast
Issued by NWS Cleveland, OH

Home | Current Version | Previous Version | Graphics & Text | Print | Product List | Glossary Off
Versions: 1 2 3 4 5 6 7 8 9 10 11 12 13 14 15 16 17 18 19 20 21 22

380
FTUS41 KCLE 250706 AAA
TAFERI
TAF AMD
KERI 250706Z 2507/2606 35010KT P6SM SCT018 OVC028
      TEMPO 2507/2511 BKN018
     FM251100 01010KT P6SM BKN015 OVC028
     FM251900 01010KT P6SM BKN035
     FM252100 01010KT P6SM SCT035
     FM260100 06006KT P6SM FEW040
     FM260500 12006KT P6SM FEW250=

USA.gov is the U.S. government's official web portal to all federal, state and local government web resources and services.